HPN weather

Westchester County Airport
White Plains, New York, United States

Public forecast

Using degrees Fahrenheit for public forecast. Weather courtesy of forecast.io.

METAR (pilot weather report)

Retrieved 2019/04/19 23:56 UTC (8 minutes ago):

KHPN 192356Z 17008KT 8SM BKN011 BKN027 OVC060 18/16 A2976 RMK AO2 SLP077 T01830161 10233 20183 53006

TAF (pilot weather forecast)

Forecast is more than 12 hours old.

Retrieved 2019/04/19 00:42 UTC (23 hours ago):

TAF KHPN 192340Z 2000/2024 17015G23KT 5SM -SHRA VCSH BKN008 OVC015 WS020/19045KT TEMPO 2000/2003 3SM SHRA BR SCT008 OVC015 FM200900 18015KT 3SM SHRA BR BKN008 OVC015 WS015/20050KT PROB30 2010/2014 1SM +TSRA BKN015 OVC030CB FM201500 17012G21KT 4SM SHRA BR BKN015 WS020/19050KT FM201700 17014G22KT P6SM VCSH BKN015 BKN025 WS020/19050KT FM201900 15015G25KT P6SM SCT030 BKN150 AMD NOT SKED